Airfield :







YOU CAN JOIN US ON...

 
LOGIN :

Register | Disclaimer

   EN    FR    IT 

 









Legend :    VFR   Marginal VFR   IFR   Intensive IFR   Very Intensive IFR
Visi :
Ceiling :
>= 8 km
>= 3000ft
5 to 8 km
1000 to 3000 ft
1500m to 5 km
500 to 1000 ft
800 to 1500m
200 to 500 ft
< 800m
< 200 ft
Symbols :   Thunderstorms  Fog  Heavy snow  Heavy precipitations  Wind > 20 kt







- Airport Elevation : 1188 ft


KCDA - Caledonia County

CURRENT METAR :
  • 191818Z AUTO 00000KT 10SM CLR 18/03 A3032 RMK AO2 T01820028

EXPIRED METARs :
  • 191756Z AUTO 24003KT 10SM CLR 18/03 A3032 RMK AO2 T01780029 10178 20012
  • 191738Z AUTO 00000KT 10SM CLR 17/02 A3033 RMK AO2 T01720019
  • 191716Z AUTO 00000KT 10SM CLR 17/03 A3034 RMK AO2 T01690025
  • 191659Z AUTO 05003KT 10SM CLR 16/03 A3035 RMK AO2 T01610029
  • 191636Z AUTO 14003KT 10SM CLR 15/03 A3035 RMK AO2 T01530027
  • 191619Z AUTO 00000KT 10SM CLR 15/04 A3035 RMK AO2 T01490038
  • 191556Z AUTO 09003KT 10SM CLR 13/04 A3035 RMK AO2 T01340043
  • 191539Z AUTO 10004KT 10SM CLR 13/04 A3036 RMK AO2 T01280042

TAF N/A
No reported NOTAMs for that airfield.



MET'MAP, your aeronautical weather chart ! - Copyright ORBIFLY December 2007 - Disclaimer

ORBIFLY MET'MAP TEAM :

Programming & Development : Alexandra Zaïnal
Concept & Development : Baudouin d'Aumeries
Co-Development & Prog : Marc-Olivier Méhu
Technical & hardware support : Manuel Goepfert

Contact : metmap@orbifly.com




SOURCES & CREDITS :

   NOAA